Terminal Aerodrome Forecast
Issued by NWS Wilmington, OH

Current Version | Previous Version | Graphics & Text | Print | Product List | Glossary On
Versions: 1 2 3 4 5 6 7 8 9 10 11 12 13 14 15 16
000
FTUS41 KILN 210520
TAFILN
TAF
KILN 210520Z 2106/2206 26011KT P6SM BKN040
      TEMPO 2106/2107 -SHRA BKN025
     FM210800 30010KT P6SM BKN035
     FM212300 34008KT P6SM OVC060
     FM220400 03008KT P6SM OVC035=

USA.gov is the U.S. government's official web portal to all federal, state and local government web resources and services.